Time;durP1;ratioP1;P1;durP2;ratioP2;P2;SDS_P1;SDS_P2;PMS_P1;PMS_P2;Temp;Humidity;BMP_temperature;BMP_pressure;BME280_temperature;BME280_humidity;BME280_pressure;Samples;Min_cycle;Max_cycle;Signal;HPM_P1;HPM_P2
2023/01/24 00:00:23;;;;;;;38.25;15.50;;;;;;;;;;5059333;28;20049;-80
2023/01/24 00:02:48;;;;;;;37.63;15.40;;;;;;;;;;5059202;28;20034;-81
2023/01/24 00:05:13;;;;;;;37.10;16.08;;;;;;;;;;5059993;28;20029;-80
2023/01/24 00:07:39;;;;;;;42.60;17.60;;;;;;;;;;5056759;28;20107;-80
2023/01/24 00:10:05;;;;;;;42.28;17.52;;;;;;;;;;5056569;28;20047;-80
2023/01/24 00:12:30;;;;;;;39.92;16.00;;;;;;;;;;5059550;28;20017;-81
2023/01/24 00:14:57;;;;;;;39.10;16.15;;;;;;;;;;5061537;28;20025;-80
2023/01/24 00:17:24;;;;;;;37.10;15.70;;;;;;;;;;5063917;28;20491;-80
2023/01/24 00:19:49;;;;;;;39.78;16.77;;;;;;;;;;5061802;28;20024;-80
2023/01/24 00:22:14;;;;;;;41.42;16.08;;;;;;;;;;5061335;28;20170;-81
2023/01/24 00:24:39;;;;;;;39.47;16.05;;;;;;;;;;5061792;28;20037;-80
2023/01/24 00:27:05;;;;;;;38.40;15.48;;;;;;;;;;5061292;28;20033;-80
2023/01/24 00:29:30;;;;;;;36.25;14.13;;;;;;;;;;5058644;28;20021;-81
2023/01/24 00:31:55;;;;;;;30.98;14.40;;;;;;;;;;5060343;28;20068;-79
2023/01/24 00:34:20;;;;;;;37.70;15.32;;;;;;;;;;5059585;28;20044;-80
2023/01/24 00:36:46;;;;;;;35.30;14.38;;;;;;;;;;5059568;28;20037;-80
2023/01/24 00:39:11;;;;;;;34.75;15.30;;;;;;;;;;5059787;28;20044;-82
2023/01/24 00:41:36;;;;;;;33.35;13.98;;;;;;;;;;5061350;28;20036;-81
2023/01/24 00:44:02;;;;;;;37.67;14.90;;;;;;;;;;5058733;28;20032;-81
2023/01/24 00:46:27;;;;;;;40.75;15.85;;;;;;;;;;5062508;28;20045;-80
2023/01/24 00:48:52;;;;;;;35.80;14.95;;;;;;;;;;5077092;28;20032;-80
2023/01/24 00:51:17;;;;;;;34.90;14.65;;;;;;;;;;5074949;28;20040;-82
2023/01/24 00:53:42;;;;;;;35.42;14.90;;;;;;;;;;5067696;28;20005;-80
2023/01/24 00:56:08;;;;;;;32.13;14.52;;;;;;;;;;5079180;28;20020;-80
2023/01/24 00:58:33;;;;;;;36.08;15.60;;;;;;;;;;5079190;28;20044;-81
2023/01/24 01:01:02;;;;;;;40.03;16.52;;;;;;;;;;5080813;28;20039;-81
2023/01/24 01:03:27;;;;;;;31.17;13.18;;;;;;;;;;5080609;28;20036;-81
2023/01/24 01:06:09;;;;;;;43.92;16.38;;;;;;;;;;5080319;28;20104;-81
2023/01/24 01:08:34;;;;;;;44.50;17.85;;;;;;;;;;5081125;28;20035;-82
2023/01/24 01:11:00;;;;;;;36.20;14.90;;;;;;;;;;5080954;28;20017;-82
2023/01/24 01:13:26;;;;;;;43.50;16.50;;;;;;;;;;5079240;28;20036;-80
2023/01/24 01:15:51;;;;;;;44.42;17.15;;;;;;;;;;5065785;28;20028;-81
2023/01/24 01:18:17;;;;;;;39.45;16.52;;;;;;;;;;5063419;28;20025;-82
2023/01/24 01:20:48;;;;;;;32.75;13.65;;;;;;;;;;5067726;28;20024;-80
2023/01/24 01:23:14;;;;;;;37.72;15.88;;;;;;;;;;5062867;28;20033;-80
2023/01/24 01:25:39;;;;;;;39.47;16.05;;;;;;;;;;5058547;28;20363;-81
2023/01/24 01:28:04;;;;;;;39.78;16.50;;;;;;;;;;5059611;28;20394;-82
2023/01/24 01:30:29;;;;;;;37.38;16.23;;;;;;;;;;5058144;28;20032;-81
2023/01/24 01:32:55;;;;;;;41.72;16.58;;;;;;;;;;5057122;28;20058;-80
2023/01/24 01:35:20;;;;;;;40.35;17.02;;;;;;;;;;5056695;28;20048;-81
2023/01/24 01:37:45;;;;;;;42.80;17.00;;;;;;;;;;5057380;28;20043;-80
2023/01/24 01:40:11;;;;;;;40.80;17.40;;;;;;;;;;5055652;28;20024;-80
2023/01/24 01:42:47;;;;;;;41.67;16.30;;;;;;;;;;5055988;28;20024;-80
2023/01/24 01:45:33;;;;;;;36.13;15.55;;;;;;;;;;5056041;28;20131;-82
2023/01/24 01:48:01;;;;;;;35.92;15.18;;;;;;;;;;5058229;28;20114;-81
2023/01/24 01:50:31;;;;;;;43.17;16.60;;;;;;;;;;5057109;28;20033;-80
2023/01/24 01:52:56;;;;;;;39.55;15.65;;;;;;;;;;5056939;28;20025;-81
2023/01/24 01:55:27;;;;;;;43.05;17.55;;;;;;;;;;5057910;28;20063;-82
2023/01/24 01:57:53;;;;;;;43.42;17.35;;;;;;;;;;5056490;28;20032;-81
2023/01/24 02:00:21;;;;;;;42.72;17.15;;;;;;;;;;5056131;28;20021;-81
2023/01/24 02:02:50;;;;;;;39.75;17.27;;;;;;;;;;5057429;28;20054;-81
2023/01/24 02:05:19;;;;;;;37.03;15.40;;;;;;;;;;5055848;28;20021;-80
2023/01/24 02:07:56;;;;;;;39.53;16.33;;;;;;;;;;5057612;28;20029;-80
2023/01/24 02:10:24;;;;;;;44.17;17.48;;;;;;;;;;5057912;28;20029;-80
2023/01/24 02:12:53;;;;;;;38.67;16.75;;;;;;;;;;5058749;28;20017;-80
2023/01/24 02:18:12;;;;;;;40.13;17.23;;;;;;;;;;5051078;28;20037;-80
2023/01/24 02:20:40;;;;;;;42.40;17.42;;;;;;;;;;5058232;28;20051;-80
2023/01/24 02:23:19;;;;;;;38.53;15.52;;;;;;;;;;5059891;28;20029;-80
2023/01/24 02:25:51;;;;;;;39.97;16.30;;;;;;;;;;5059588;28;20021;-81
2023/01/24 02:28:16;;;;;;;39.20;17.20;;;;;;;;;;5059925;28;20087;-82
2023/01/24 02:30:41;;;;;;;42.35;17.30;;;;;;;;;;5059227;28;20025;-80
2023/01/24 02:33:14;;;;;;;42.97;16.77;;;;;;;;;;5059880;28;20017;-81
2023/01/24 02:35:40;;;;;;;42.20;16.98;;;;;;;;;;5059754;28;20104;-80
2023/01/24 02:38:14;;;;;;;42.42;17.50;;;;;;;;;;5059667;28;20067;-80
2023/01/24 02:40:40;;;;;;;40.35;17.27;;;;;;;;;;5059583;28;20028;-80
2023/01/24 02:43:07;;;;;;;40.15;16.13;;;;;;;;;;5058541;28;20432;-81
2023/01/24 02:45:33;;;;;;;45.92;16.73;;;;;;;;;;5059920;28;20017;-81
2023/01/24 02:47:59;;;;;;;44.53;17.33;;;;;;;;;;5059205;28;20036;-80
2023/01/24 02:50:27;;;;;;;45.95;18.20;;;;;;;;;;5059347;28;20029;-80
2023/01/24 02:58:05;;;;;;;42.50;15.45;;;;;;;;;;5058924;28;20596;-80
2023/01/24 02:58:24;;;;;;;45.55;16.80;;;;;;;;;;5057544;28;20037;-79
2023/01/24 03:00:49;;;;;;;41.53;16.52;;;;;;;;;;5058608;28;20029;-80
2023/01/24 03:03:15;;;;;;;46.95;17.42;;;;;;;;;;5057292;28;20031;-81
2023/01/24 03:05:56;;;;;;;40.90;17.63;;;;;;;;;;5059040;28;20437;-81
2023/01/24 03:08:21;;;;;;;37.63;16.10;;;;;;;;;;5058780;28;20096;-80
2023/01/24 03:10:46;;;;;;;43.33;16.42;;;;;;;;;;5059106;28;20071;-80
2023/01/24 03:35:06;;;;;;;34.72;14.23;;;;;;;;;;5057544;28;20028;-81
2023/01/24 03:40:16;;;;;;;39.35;14.35;;;;;;;;;;5057764;28;20031;-81
2023/01/24 03:42:48;;;;;;;34.63;14.40;;;;;;;;;;5057185;28;20040;-81
2023/01/24 03:45:25;;;;;;;32.78;14.05;;;;;;;;;;5056741;28;20021;-80
2023/01/24 03:47:57;;;;;;;29.60;13.05;;;;;;;;;;5059360;28;20036;-81
2023/01/24 03:53:17;;;;;;;35.20;12.43;;;;;;;;;;5061010;28;20039;-79
2023/01/24 03:55:43;;;;;;;33.88;13.82;;;;;;;;;;5059448;28;20025;-80
2023/01/24 03:58:09;;;;;;;37.42;15.18;;;;;;;;;;5060359;28;20174;-80
2023/01/24 04:00:35;;;;;;;36.05;14.65;;;;;;;;;;5061742;28;20367;-79
2023/01/24 04:03:01;;;;;;;39.58;15.38;;;;;;;;;;5060714;28;20425;-80
2023/01/24 04:05:27;;;;;;;33.55;14.35;;;;;;;;;;5059911;28;20031;-80
2023/01/24 04:07:53;;;;;;;39.05;13.98;;;;;;;;;;5059906;28;20064;-80
2023/01/24 04:10:19;;;;;;;33.72;15.10;;;;;;;;;;5060239;28;20029;-81
2023/01/24 04:12:45;;;;;;;37.97;15.07;;;;;;;;;;5059627;28;20055;-81
2023/01/24 04:15:19;;;;;;;35.35;15.70;;;;;;;;;;5059942;28;20048;-80
2023/01/24 04:17:44;;;;;;;;;;;;;;;;;;5061071;28;20044;-79
2023/01/24 04:20:09;;;;;;;35.30;13.37;;;;;;;;;;5060828;28;19909;-80
2023/01/24 04:22:35;;;;;;;36.13;14.32;;;;;;;;;;5060495;28;20051;-80
2023/01/24 04:25:00;;;;;;;36.25;14.02;;;;;;;;;;5058530;28;20122;-80
2023/01/24 04:27:25;;;;;;;40.50;15.07;;;;;;;;;;5060430;28;20032;-79
2023/01/24 04:29:50;;;;;;;30.70;11.80;;;;;;;;;;5059613;28;20025;-79
2023/01/24 04:32:16;;;;;;;39.70;16.10;;;;;;;;;;5058561;28;20036;-79
2023/01/24 04:34:41;;;;;;;38.65;15.00;;;;;;;;;;5057473;28;20029;-79
2023/01/24 04:37:06;;;;;;;36.80;15.18;;;;;;;;;;5057658;28;20039;-80
2023/01/24 04:39:31;;;;;;;31.35;14.15;;;;;;;;;;5058132;28;20029;-80
2023/01/24 04:41:56;;;;;;;37.25;13.73;;;;;;;;;;5059983;28;20116;-80
2023/01/24 04:44:22;;;;;;;35.65;15.35;;;;;;;;;;5061170;28;20021;-79
2023/01/24 04:46:47;;;;;;;37.17;15.30;;;;;;;;;;5057269;28;20025;-79
2023/01/24 04:49:12;;;;;;;37.05;14.20;;;;;;;;;;5057196;28;20059;-79
2023/01/24 04:51:41;;;;;;;36.00;13.95;;;;;;;;;;5057647;28;20033;-80
2023/01/24 04:54:07;;;;;;;38.05;14.63;;;;;;;;;;5057520;28;20434;-80
2023/01/24 04:56:32;;;;;;;27.63;11.80;;;;;;;;;;5058326;28;20047;-81
2023/01/24 04:58:57;;;;;;;38.88;14.18;;;;;;;;;;5058856;28;20371;-81
2023/01/24 05:01:23;;;;;;;37.83;13.90;;;;;;;;;;5060826;28;20028;-80
2023/01/24 05:03:48;;;;;;;40.78;14.80;;;;;;;;;;5060397;28;20025;-81
2023/01/24 05:06:13;;;;;;;36.03;12.85;;;;;;;;;;5062852;28;20390;-81
2023/01/24 05:08:38;;;;;;;45.08;15.60;;;;;;;;;;5061699;28;20385;-81
2023/01/24 05:11:04;;;;;;;44.30;16.05;;;;;;;;;;5059813;28;20390;-81
2023/01/24 05:13:29;;;;;;;40.28;15.05;;;;;;;;;;5058699;28;20108;-81
2023/01/24 05:15:57;;;;;;;39.40;15.63;;;;;;;;;;5060376;28;20020;-80
2023/01/24 05:18:22;;;;;;;42.55;15.20;;;;;;;;;;5058585;28;20020;-81
2023/01/24 05:20:47;;;;;;;36.90;14.38;;;;;;;;;;5061608;28;20048;-81
2023/01/24 05:23:12;;;;;;;34.38;15.48;;;;;;;;;;5061014;28;20052;-80
2023/01/24 05:25:40;;;;;;;32.90;14.68;;;;;;;;;;5062512;28;20029;-81
2023/01/24 05:28:05;;;;;;;37.75;14.85;;;;;;;;;;5061867;28;20107;-80
2023/01/24 05:30:30;;;;;;;36.65;15.52;;;;;;;;;;5063068;28;20056;-81
2023/01/24 05:32:57;;;;;;;34.50;12.60;;;;;;;;;;5059427;28;20513;-79
2023/01/24 05:35:23;;;;;;;36.72;14.73;;;;;;;;;;5059977;28;20045;-80
2023/01/24 05:37:48;;;;;;;33.75;14.48;;;;;;;;;;5057898;28;20028;-80
2023/01/24 05:40:13;;;;;;;41.40;15.05;;;;;;;;;;5059054;28;20056;-80
2023/01/24 05:42:42;;;;;;;35.60;14.65;;;;;;;;;;5061012;28;20029;-80
2023/01/24 05:45:08;;;;;;;37.45;14.27;;;;;;;;;;5061780;28;20052;-80
2023/01/24 05:47:33;;;;;;;38.97;15.70;;;;;;;;;;5058984;28;20032;-80
2023/01/24 05:49:58;;;;;;;36.90;14.98;;;;;;;;;;5060289;28;20021;-82
2023/01/24 05:52:24;;;;;;;41.83;14.82;;;;;;;;;;5060228;28;20040;-82
2023/01/24 05:54:50;;;;;;;37.33;14.35;;;;;;;;;;5057305;28;20033;-81
2023/01/24 05:57:16;;;;;;;36.42;13.80;;;;;;;;;;5059022;28;20044;-82
2023/01/24 05:59:41;;;;;;;36.67;14.95;;;;;;;;;;5058988;28;20029;-81
2023/01/24 06:02:06;;;;;;;33.97;14.07;;;;;;;;;;5059466;28;20033;-80
2023/01/24 06:04:31;;;;;;;28.92;12.65;;;;;;;;;;5059033;28;20389;-81
2023/01/24 06:06:57;;;;;;;34.88;13.52;;;;;;;;;;5059046;28;20016;-81
2023/01/24 06:09:23;;;;;;;34.33;14.32;;;;;;;;;;5058284;28;20033;-81
2023/01/24 06:11:48;;;;;;;37.15;14.02;;;;;;;;;;5059079;28;20080;-81
2023/01/24 06:14:13;;;;;;;34.90;14.13;;;;;;;;;;5057530;28;20056;-82
2023/01/24 06:16:39;;;;;;;30.15;12.93;;;;;;;;;;5057455;28;20031;-81
2023/01/24 06:19:04;;;;;;;34.75;13.98;;;;;;;;;;5057645;28;20064;-80
2023/01/24 06:22:09;;;;;;;31.05;13.98;;;;;;;;;;5057060;28;20025;-80
2023/01/24 06:24:34;;;;;;;35.40;14.65;;;;;;;;;;5058534;28;20033;-81
2023/01/24 06:27:00;;;;;;;30.42;12.68;;;;;;;;;;5058046;28;20028;-81
2023/01/24 06:29:25;;;;;;;35.88;14.90;;;;;;;;;;5058096;28;20040;-81
2023/01/24 06:32:10;;;;;;;36.30;14.18;;;;;;;;;;5058735;28;20025;-80
2023/01/24 06:35:04;;;;;;;33.35;13.88;;;;;;;;;;5057634;28;20076;-81
2023/01/24 06:37:49;;;;;;;32.13;13.23;;;;;;;;;;5059755;28;20093;-83
2023/01/24 06:40:17;;;;;;;32.97;13.23;;;;;;;;;;5059434;28;20086;-80
2023/01/24 06:42:42;;;;;;;29.08;12.40;;;;;;;;;;5059764;28;20112;-79
2023/01/24 06:45:08;;;;;;;34.38;13.90;;;;;;;;;;5059498;28;20071;-81
2023/01/24 06:47:33;;;;;;;30.33;12.75;;;;;;;;;;5059184;28;20029;-80
2023/01/24 06:49:59;;;;;;;27.92;12.18;;;;;;;;;;5060465;28;20083;-81
2023/01/24 06:52:24;;;;;;;31.27;12.85;;;;;;;;;;5060411;28;20021;-80
2023/01/24 06:54:49;;;;;;;30.42;14.05;;;;;;;;;;5059773;28;20036;-80
2023/01/24 06:57:15;;;;;;;33.47;13.75;;;;;;;;;;5060470;28;20025;-80
2023/01/24 06:59:40;;;;;;;31.23;12.63;;;;;;;;;;5060093;28;20535;-80
2023/01/24 07:02:08;;;;;;;35.03;13.18;;;;;;;;;;5058447;28;20115;-80
2023/01/24 07:04:35;;;;;;;31.85;14.02;;;;;;;;;;5061394;28;20064;-81
2023/01/24 07:07:00;;;;;;;31.98;14.05;;;;;;;;;;5061697;28;20067;-81
2023/01/24 07:09:25;;;;;;;31.95;13.15;;;;;;;;;;5061176;28;20029;-81
2023/01/24 07:11:55;;;;;;;29.75;13.38;;;;;;;;;;5060885;28;20029;-80
2023/01/24 07:14:20;;;;;;;30.58;13.35;;;;;;;;;;5060783;28;20437;-80
2023/01/24 07:16:45;;;;;;;30.38;13.55;;;;;;;;;;5061540;28;20104;-80
2023/01/24 07:19:15;;;;;;;35.00;14.30;;;;;;;;;;5060793;28;20521;-80
2023/01/24 07:21:40;;;;;;;32.35;14.02;;;;;;;;;;5058969;28;20060;-80
2023/01/24 07:24:13;;;;;;;32.38;12.98;;;;;;;;;;5059569;28;20037;-81
2023/01/24 07:26:38;;;;;;;32.90;13.32;;;;;;;;;;5059439;28;20013;-80
2023/01/24 07:29:04;;;;;;;30.88;13.00;;;;;;;;;;5060124;28;20090;-81
2023/01/24 07:31:29;;;;;;;37.17;14.73;;;;;;;;;;5069063;28;20009;-81
2023/01/24 07:33:54;;;;;;;32.10;13.43;;;;;;;;;;5078113;28;20073;-80
2023/01/24 07:36:19;;;;;;;32.28;13.65;;;;;;;;;;5078183;28;20009;-82
2023/01/24 07:38:45;;;;;;;33.30;13.43;;;;;;;;;;5077890;28;20103;-82
2023/01/24 07:41:10;;;;;;;31.58;12.15;;;;;;;;;;5078120;28;20013;-82
2023/01/24 07:43:36;;;;;;;31.60;13.00;;;;;;;;;;5076968;28;20029;-81
2023/01/24 07:46:07;;;;;;;34.55;13.52;;;;;;;;;;5078356;28;20024;-82
2023/01/24 07:48:32;;;;;;;33.78;13.80;;;;;;;;;;5077845;28;20077;-81
2023/01/24 07:50:59;;;;;;;27.45;12.13;;;;;;;;;;5076965;28;20071;-81
2023/01/24 07:53:26;;;;;;;38.67;14.57;;;;;;;;;;5078124;28;20077;-82
2023/01/24 07:55:52;;;;;;;27.60;11.32;;;;;;;;;;5078135;28;20052;-81
2023/01/24 07:58:17;;;;;;;32.97;13.70;;;;;;;;;;5077677;28;20047;-82
2023/01/24 08:00:44;;;;;;;33.60;12.48;;;;;;;;;;5067807;28;20124;-82
2023/01/24 08:03:09;;;;;;;29.85;12.85;;;;;;;;;;5056923;28;20082;-81
2023/01/24 08:05:37;;;;;;;33.05;12.88;;;;;;;;;;5056370;28;20033;-81
2023/01/24 08:08:02;;;;;;;32.78;13.38;;;;;;;;;;5056088;28;20044;-81
2023/01/24 08:10:29;;;;;;;28.20;12.13;;;;;;;;;;5087968;22;20495;-81
2023/01/24 08:12:54;;;;;;;33.33;13.82;;;;;;;;;;5015573;28;20022;-80
2023/01/24 08:15:19;;;;;;;24.58;10.15;;;;;;;;;;4997953;28;20041;-80
2023/01/24 08:17:44;;;;;;;34.60;13.90;;;;;;;;;;5016694;28;20021;-82
2023/01/24 08:20:10;;;;;;;32.45;13.57;;;;;;;;;;5017661;28;20441;-83
2023/01/24 08:22:38;;;;;;;31.02;12.50;;;;;;;;;;5016467;28;20380;-81
2023/01/24 08:25:03;;;;;;;36.13;13.57;;;;;;;;;;5017174;28;20037;-81
2023/01/24 08:27:29;;;;;;;30.02;12.50;;;;;;;;;;5017378;28;20028;-81
2023/01/24 08:29:54;;;;;;;32.33;13.27;;;;;;;;;;5017167;28;20022;-79
2023/01/24 08:32:19;;;;;;;33.00;13.27;;;;;;;;;;5017315;28;20034;-81
2023/01/24 08:34:44;;;;;;;32.33;13.23;;;;;;;;;;5000879;28;20030;-81
2023/01/24 08:37:09;;;;;;;35.35;14.40;;;;;;;;;;5022269;28;20029;-81
2023/01/24 08:39:35;;;;;;;34.42;14.25;;;;;;;;;;5021357;28;20033;-82
2023/01/24 08:42:00;;;;;;;33.97;13.60;;;;;;;;;;5021963;28;20030;-83
2023/01/24 08:44:25;;;;;;;34.05;14.02;;;;;;;;;;5022478;28;20026;-81
2023/01/24 08:46:50;;;;;;;30.20;12.75;;;;;;;;;;5022773;28;20060;-82
2023/01/24 08:49:15;;;;;;;33.38;12.82;;;;;;;;;;5022744;28;20037;-81
2023/01/24 08:51:44;;;;;;;32.83;13.30;;;;;;;;;;5022334;28;20034;-81
2023/01/24 08:54:10;;;;;;;37.83;13.88;;;;;;;;;;5022687;28;20560;-81
2023/01/24 08:56:35;;;;;;;37.40;13.68;;;;;;;;;;5022016;28;20105;-81
2023/01/24 08:59:00;;;;;;;32.40;13.30;;;;;;;;;;5021638;28;20018;-80
2023/01/24 09:01:26;;;;;;;33.75;14.25;;;;;;;;;;5005758;28;20029;-81
2023/01/24 09:03:54;;;;;;;33.97;13.45;;;;;;;;;;5023065;28;20036;-80
2023/01/24 09:06:20;;;;;;;32.10;12.68;;;;;;;;;;5004452;28;20065;-81
2023/01/24 09:08:45;;;;;;;37.38;14.05;;;;;;;;;;5022071;28;20034;-81
2023/01/24 09:11:11;;;;;;;37.38;14.50;;;;;;;;;;5022152;28;20072;-82
2023/01/24 09:13:36;;;;;;;31.88;14.05;;;;;;;;;;5023019;28;20025;-82
2023/01/24 09:16:01;;;;;;;34.72;13.77;;;;;;;;;;5022985;28;20018;-82
2023/01/24 09:18:26;;;;;;;33.28;13.52;;;;;;;;;;5022842;28;20032;-80
2023/01/24 09:20:52;;;;;;;37.55;13.50;;;;;;;;;;5022856;28;20026;-81
2023/01/24 09:23:17;;;;;;;33.70;15.07;;;;;;;;;;5022314;28;20041;-81
2023/01/24 09:25:49;;;;;;;34.95;13.77;;;;;;;;;;5004627;28;20022;-82
2023/01/24 09:28:14;;;;;;;37.85;14.25;;;;;;;;;;5023526;28;20032;-82
2023/01/24 09:30:39;;;;;;;37.90;14.10;;;;;;;;;;5023199;28;20057;-80
2023/01/24 09:33:05;;;;;;;35.95;13.57;;;;;;;;;;5022743;28;20025;-82
2023/01/24 09:35:30;;;;;;;34.90;13.93;;;;;;;;;;5003953;28;20402;-81
2023/01/24 09:37:56;;;;;;;31.88;13.63;;;;;;;;;;5022356;28;20080;-82
2023/01/24 09:40:26;;;;;;;37.53;14.07;;;;;;;;;;5021721;28;20026;-81
2023/01/24 09:43:04;;;;;;;34.65;13.50;;;;;;;;;;5004120;28;20038;-81
2023/01/24 09:45:33;;;;;;;39.13;14.40;;;;;;;;;;5022456;28;20080;-82
2023/01/24 09:48:06;;;;;;;37.80;14.45;;;;;;;;;;5022194;28;20161;-81
2023/01/24 09:50:42;;;;;;;35.03;13.43;;;;;;;;;;5021255;28;20390;-80
2023/01/24 09:53:17;;;;;;;39.30;15.00;;;;;;;;;;5020254;28;20036;-80
2023/01/24 09:55:43;;;;;;;39.13;15.52;;;;;;;;;;5002688;28;20040;-79
2023/01/24 09:58:33;;;;;;;37.30;14.48;;;;;;;;;;5020141;28;20037;-79
2023/01/24 10:01:10;;;;;;;39.22;14.73;;;;;;;;;;5002480;28;20378;-78
2023/01/24 10:03:36;;;;;;;39.05;15.27;;;;;;;;;;5021088;28;20037;-80
2023/01/24 10:06:26;;;;;;;36.92;15.00;;;;;;;;;;5002980;28;20025;-81
2023/01/24 10:09:15;;;;;;;42.78;14.80;;;;;;;;;;5010145;28;20095;-83
2023/01/24 10:11:51;;;;;;;36.40;14.65;;;;;;;;;;5018177;28;20032;-81
2023/01/24 10:14:37;;;;;;;35.22;13.73;;;;;;;;;;5018677;28;20033;-81
2023/01/24 10:17:25;;;;;;;36.75;13.77;;;;;;;;;;5020412;28;20022;-81
2023/01/24 10:19:56;;;;;;;40.45;15.32;;;;;;;;;;5003886;28;20030;-83
2023/01/24 10:22:34;;;;;;;34.85;13.95;;;;;;;;;;5019487;28;20049;-81
2023/01/24 10:25:12;;;;;;;36.13;14.50;;;;;;;;;;5001749;28;20087;-83
2023/01/24 10:27:50;;;;;;;35.13;14.05;;;;;;;;;;5002854;28;20029;-82
2023/01/24 10:30:42;;;;;;;34.08;13.98;;;;;;;;;;5020140;28;20041;-82
2023/01/24 10:33:18;;;;;;;34.95;14.55;;;;;;;;;;5021229;28;20026;-83
2023/01/24 10:35:54;;;;;;;36.53;14.07;;;;;;;;;;5019854;28;20424;-82
2023/01/24 10:38:20;;;;;;;29.02;10.65;;;;;;;;;;5001316;28;20040;-83
2023/01/24 10:40:51;;;;;;;37.15;15.30;;;;;;;;;;5018987;28;20034;-83
2023/01/24 10:43:17;;;;;;;34.85;14.02;;;;;;;;;;5020334;28;20034;-83
2023/01/24 10:45:57;;;;;;;32.40;14.07;;;;;;;;;;5001779;28;20399;-82
2023/01/24 10:48:35;;;;;;;39.67;15.32;;;;;;;;;;5019730;28;20022;-82
2023/01/24 10:51:16;;;;;;;37.80;15.40;;;;;;;;;;5019263;28;20040;-83
2023/01/24 10:53:41;;;;;;;41.72;14.32;;;;;;;;;;5019758;28;20045;-81
2023/01/24 10:56:07;;;;;;;35.95;14.25;;;;;;;;;;5020587;28;20026;-81
2023/01/24 10:59:00;;;;;;;37.08;14.10;;;;;;;;;;5019002;28;20502;-81
2023/01/24 11:01:31;;;;;;;35.72;13.35;;;;;;;;;;5019308;28;20076;-81
2023/01/24 11:03:56;;;;;;;35.72;14.10;;;;;;;;;;5019005;28;20022;-82
2023/01/24 11:06:35;;;;;;;37.03;15.50;;;;;;;;;;5019197;28;20479;-82
2023/01/24 11:09:10;;;;;;;38.20;14.18;;;;;;;;;;5018738;28;20041;-82
2023/01/24 11:11:45;;;;;;;38.67;14.98;;;;;;;;;;5018995;28;20108;-82
2023/01/24 11:14:15;;;;;;;36.83;14.52;;;;;;;;;;5002179;28;20549;-82
2023/01/24 11:16:46;;;;;;;37.97;14.65;;;;;;;;;;5020614;28;20040;-81
2023/01/24 11:19:32;;;;;;;38.55;14.48;;;;;;;;;;5003577;28;20044;-82
2023/01/24 11:22:00;;;;;;;41.33;14.38;;;;;;;;;;5020987;28;20025;-82
2023/01/24 11:24:27;;;;;;;42.33;15.30;;;;;;;;;;5021293;28;20037;-82
2023/01/24 11:27:05;;;;;;;43.70;15.60;;;;;;;;;;5020367;28;20034;-79
2023/01/24 11:29:34;;;;;;;42.20;16.05;;;;;;;;;;5021055;28;20077;-82
2023/01/24 11:32:19;;;;;;;46.75;17.17;;;;;;;;;;5020410;28;20072;-83
2023/01/24 11:35:02;;;;;;;38.10;15.75;;;;;;;;;;5020650;28;20113;-81
2023/01/24 11:38:05;;;;;;;41.97;16.00;;;;;;;;;;5020928;28;20109;-82
2023/01/24 11:40:46;;;;;;;40.65;15.50;;;;;;;;;;4996615;28;20103;-82
2023/01/24 11:43:17;;;;;;;39.88;14.35;;;;;;;;;;5020475;28;20029;-82
2023/01/24 11:45:58;;;;;;;45.95;16.90;;;;;;;;;;5020850;28;20386;-83
2023/01/24 11:48:47;;;;;;;45.00;16.10;;;;;;;;;;5002811;28;20021;-82
2023/01/24 11:51:37;;;;;;;37.65;14.93;;;;;;;;;;5020633;28;20085;-82
2023/01/24 11:54:36;;;;;;;45.50;16.55;;;;;;;;;;5019376;28;20100;-82
2023/01/24 11:57:24;;;;;;;45.70;15.48;;;;;;;;;;5019118;28;20545;-81
2023/01/24 11:59:54;;;;;;;45.33;16.25;;;;;;;;;;5023476;28;20105;-79
2023/01/24 12:02:44;;;;;;;44.08;16.83;;;;;;;;;;5026444;28;20025;-81
2023/01/24 12:05:30;;;;;;;44.30;15.70;;;;;;;;;;5019071;28;20022;-82
2023/01/24 12:08:04;;;;;;;46.03;15.65;;;;;;;;;;5020315;28;20022;-82
2023/01/24 12:10:42;;;;;;;40.40;15.35;;;;;;;;;;5023305;28;20398;-82
2023/01/24 12:13:29;;;;;;;44.63;16.63;;;;;;;;;;5024402;28;20456;-82
2023/01/24 12:16:42;;;;;;;40.38;15.48;;;;;;;;;;5024123;28;20033;-81
2023/01/24 12:19:32;;;;;;;35.28;14.70;;;;;;;;;;5000991;28;20065;-81
2023/01/24 12:21:59;;;;;;;36.58;14.55;;;;;;;;;;5025882;28;20141;-84
2023/01/24 12:24:29;;;;;;;41.63;15.48;;;;;;;;;;5024509;28;20084;-82
2023/01/24 12:27:00;;;;;;;37.55;15.48;;;;;;;;;;5026110;28;20092;-82
2023/01/24 12:29:39;;;;;;;38.20;15.07;;;;;;;;;;5024436;28;20021;-83
2023/01/24 12:32:17;;;;;;;33.03;13.57;;;;;;;;;;5005650;28;20506;-82
2023/01/24 12:35:11;;;;;;;40.40;15.30;;;;;;;;;;5022058;28;20034;-81
2023/01/24 12:37:48;;;;;;;34.83;14.25;;;;;;;;;;5022499;28;20071;-82
2023/01/24 12:40:13;;;;;;;36.55;13.75;;;;;;;;;;5022579;28;20057;-81
2023/01/24 12:42:48;;;;;;;29.90;10.83;;;;;;;;;;5023156;28;20025;-83
2023/01/24 12:45:20;;;;;;;37.22;14.25;;;;;;;;;;5005016;28;20021;-85
2023/01/24 12:47:52;;;;;;;32.63;12.77;;;;;;;;;;5023227;28;20387;-84
2023/01/24 12:50:30;;;;;;;33.88;14.15;;;;;;;;;;5022519;28;20022;-82
2023/01/24 12:53:14;;;;;;;33.63;13.73;;;;;;;;;;5023025;28;20110;-82
2023/01/24 12:55:48;;;;;;;35.65;14.57;;;;;;;;;;5004762;28;20028;-83
2023/01/24 12:58:24;;;;;;;32.53;13.27;;;;;;;;;;5022296;28;20080;-83
2023/01/24 13:01:23;;;;;;;30.55;12.77;;;;;;;;;;5005023;28;20025;-81
2023/01/24 13:04:33;;;;;;;35.40;13.02;;;;;;;;;;5003141;28;20478;-81
2023/01/24 13:07:18;;;;;;;20.08;9.20;;;;;;;;;;5003957;28;20037;-82
2023/01/24 13:10:04;;;;;;;28.60;11.75;;;;;;;;;;5020859;28;20036;-83
2023/01/24 13:12:31;;;;;;;30.67;12.63;;;;;;;;;;5021498;28;20018;-81
2023/01/24 13:15:09;;;;;;;23.08;10.75;;;;;;;;;;5022347;28;20029;-84
2023/01/24 13:17:55;;;;;;;28.15;11.50;;;;;;;;;;5003807;28;20072;-84
2023/01/24 13:20:43;;;;;;;24.63;11.10;;;;;;;;;;5003367;28;20034;-82
2023/01/24 13:23:26;;;;;;;24.45;10.10;;;;;;;;;;5021235;28;20037;-84
2023/01/24 13:26:28;;;;;;;25.48;9.45;;;;;;;;;;5003796;28;20066;-83
2023/01/24 13:29:16;;;;;;;27.23;9.80;;;;;;;;;;5022872;28;20033;-82
2023/01/24 13:32:09;;;;;;;21.85;9.90;;;;;;;;;;5005093;28;20052;-81
2023/01/24 13:34:41;;;;;;;26.10;9.93;;;;;;;;;;5021029;28;20026;-85
2023/01/24 13:37:14;;;;;;;27.55;11.00;;;;;;;;;;5022344;28;20085;-83
2023/01/24 13:39:41;;;;;;;25.42;11.25;;;;;;;;;;5021198;28;20022;-82
2023/01/24 13:42:21;;;;;;;28.90;11.55;;;;;;;;;;5022726;28;20045;-81
2023/01/24 13:44:47;;;;;;;29.05;12.40;;;;;;;;;;5004042;28;20045;-83
2023/01/24 13:47:15;;;;;;;27.35;10.95;;;;;;;;;;5022840;28;20029;-83
2023/01/24 13:49:49;;;;;;;27.17;11.57;;;;;;;;;;5005546;28;20056;-82
2023/01/24 13:52:39;;;;;;;27.83;11.75;;;;;;;;;;5022591;28;20025;-83
2023/01/24 13:55:24;;;;;;;26.60;11.40;;;;;;;;;;5004945;28;20109;-82
2023/01/24 13:58:13;;;;;;;27.08;12.10;;;;;;;;;;5020305;28;20030;-83
2023/01/24 14:00:41;;;;;;;33.40;12.98;;;;;;;;;;5021275;28;20022;-83
2023/01/24 14:03:19;;;;;;;27.65;11.40;;;;;;;;;;5021789;28;20093;-82
2023/01/24 14:05:54;;;;;;;29.08;11.93;;;;;;;;;;5004521;28;20029;-82
2023/01/24 14:08:19;;;;;;;28.20;12.23;;;;;;;;;;5021930;28;20033;-80
2023/01/24 14:10:47;;;;;;;32.83;12.60;;;;;;;;;;5020622;28;20057;-82
2023/01/24 14:13:40;;;;;;;34.08;13.52;;;;;;;;;;5003682;28;20263;-82
2023/01/24 14:16:12;;;;;;;33.78;13.35;;;;;;;;;;5021144;28;20026;-82
2023/01/24 14:18:57;;;;;;;30.38;13.73;;;;;;;;;;5011748;28;20069;-82
2023/01/24 14:21:25;;;;;;;35.55;14.00;;;;;;;;;;5038492;28;20030;-80
2023/01/24 14:23:55;;;;;;;34.17;14.27;;;;;;;;;;5039345;28;20033;-80
2023/01/24 14:26:26;;;;;;;32.83;14.30;;;;;;;;;;5039263;28;20017;-82
2023/01/24 14:29:02;;;;;;;31.40;13.77;;;;;;;;;;5039388;28;20010;-81
2023/01/24 14:31:40;;;;;;;36.70;14.70;;;;;;;;;;5039128;28;20030;-81
2023/01/24 14:34:28;;;;;;;38.03;16.52;;;;;;;;;;5039123;28;20007;-82
2023/01/24 14:37:11;;;;;;;38.78;15.00;;;;;;;;;;5039298;28;20069;-81
2023/01/24 14:39:37;;;;;;;35.03;14.73;;;;;;;;;;5038282;28;20026;-81
2023/01/24 14:42:04;;;;;;;41.35;15.60;;;;;;;;;;5039075;28;20017;-82
2023/01/24 14:44:35;;;;;;;37.08;15.65;;;;;;;;;;5037649;28;20033;-81
2023/01/24 14:47:04;;;;;;;39.67;14.93;;;;;;;;;;5039209;28;20101;-81
2023/01/24 14:49:38;;;;;;;41.38;14.80;;;;;;;;;;5038000;28;20048;-81
2023/01/24 14:52:28;;;;;;;38.28;14.55;;;;;;;;;;5033652;28;20160;-81
2023/01/24 14:54:57;;;;;;;36.35;14.88;;;;;;;;;;5021626;28;20382;-81
2023/01/24 14:57:26;;;;;;;41.22;16.08;;;;;;;;;;5022462;28;20018;-80
2023/01/24 15:00:01;;;;;;;36.55;14.85;;;;;;;;;;5002502;28;20124;-78
2023/01/24 15:02:29;;;;;;;39.20;15.88;;;;;;;;;;5018683;28;20033;-81
2023/01/24 15:05:01;;;;;;;35.60;14.68;;;;;;;;;;5001278;28;20033;-83
2023/01/24 15:07:26;;;;;;;39.90;16.27;;;;;;;;;;5019120;28;20036;-81
2023/01/24 15:10:26;;;;;;;39.60;15.40;;;;;;;;;;5025311;28;20050;-81
2023/01/24 15:12:58;;;;;;;40.53;15.20;;;;;;;;;;5027342;28;20370;-81